»·PEaware :: N1AS KLAX-KSAN

N1AS :: KLAX-KSAN

FLIGHT INFORMATION

Flight Status: Arrived
Operator: Privately registered:
United States
More flights under this callsign
Pilot: Adam S. (8156)
Aircraft: CESSNA T210 TURBO CENTURION
(T210)
More flights by this aircraft type
Origin: KLAX Los Angeles Intl
United States
Destination: KSAN San Diego Intl-Lindbergh
United States
More flights between these airports :: More routes between these airports
Route: +
File this flight plan on PilotEdge
Remarks:
Altitude:
(Current/Filed)
0ft
Speed:
(Current/Filed)
0kts
Departed: 27-Jun-18 11:09 AM
Arrived: 27-Jun-18 12:11 PM
Distance/Time
Traveled:
95nm/1:02
Distance/Time
To Go:
Arrived

Flight Plot

Page will automatically refresh every two minutes.


Map Options




Map Legend


Flown Route
Filed Route
Departure Airport
Arrival Airport
Navaid (VOR, NDB)
Fix

Horizontal Profiles

Position Reports

Time Latitude Longitude Heading Altitude Ground
Speed
27-Jun-18 10:59 33.933539 -118.396958 287 106ft 0kts
27-Jun-18 11:00 33.933539 -118.396958 287 106ft 0kts
27-Jun-18 11:01 33.933539 -118.396958 287 106ft 0kts
27-Jun-18 11:02 33.933557 -118.397019 291 106ft 2kts
27-Jun-18 11:03 33.934694 -118.396869 81 106ft 15kts
27-Jun-18 11:04 33.935446 -118.389476 84 106ft 23kts
27-Jun-18 11:05 33.936330 -118.382822 30 106ft 5kts
27-Jun-18 11:06 33.936460 -118.382763 2 106ft 0kts
27-Jun-18 11:07 33.936460 -118.382763 2 106ft 0kts
27-Jun-18 11:08 33.937203 -118.383666 271 106ft 24kts
27-Jun-18 11:09 33.933929 -118.407562 258 982ft 77kts
27-Jun-18 11:10 33.929356 -118.444806 262 1606ft 138kts
27-Jun-18 11:11 33.923052 -118.494341 260 2177ft 156kts
27-Jun-18 11:12 33.916954 -118.547286 265 2547ft 151kts
27-Jun-18 11:13 33.913456 -118.588709 266 2946ft 108kts
27-Jun-18 11:14 33.909750 -118.627818 265 2918ft 122kts
27-Jun-18 11:15 33.886423 -118.632386 121 2966ft 138kts
27-Jun-18 11:16 33.869924 -118.587987 114 2913ft 151kts
27-Jun-18 11:17 33.853794 -118.542066 120 2948ft 155kts
27-Jun-18 11:18 33.836535 -118.494151 115 2961ft 157kts
27-Jun-18 11:19 33.818983 -118.445281 112 2925ft 159kts
27-Jun-18 11:20 33.801652 -118.396686 113 2940ft 156kts
27-Jun-18 11:21 33.784523 -118.349740 114 3150ft 144kts
27-Jun-18 11:22 33.769073 -118.307621 115 3613ft 133kts
27-Jun-18 11:23 33.737768 -118.282978 149 4138ft 146kts
27-Jun-18 11:24 33.705022 -118.251885 140 4645ft 155kts
27-Jun-18 11:25 33.672637 -118.216985 140 5134ft 158kts
27-Jun-18 11:26 33.640386 -118.181345 139 5639ft 156kts
27-Jun-18 11:27 33.609283 -118.146856 139 6130ft 151kts
27-Jun-18 11:28 33.578663 -118.112910 138 6619ft 151kts
27-Jun-18 11:29 33.547708 -118.078625 139 7115ft 153kts
27-Jun-18 11:30 33.516317 -118.043897 139 7493ft 160kts
27-Jun-18 11:31 33.481869 -118.005904 138 7489ft 174kts
27-Jun-18 11:32 33.446033 -117.966375 138 7487ft 176kts
27-Jun-18 11:33 33.409846 -117.926490 138 7473ft 178kts
27-Jun-18 11:34 33.373386 -117.886335 138 7465ft 178kts
27-Jun-18 11:35 33.337073 -117.846392 139 7443ft 177kts
27-Jun-18 11:36 33.300867 -117.806623 138 7457ft 177kts
27-Jun-18 11:37 33.264632 -117.766855 139 7459ft 180kts
27-Jun-18 11:38 33.226427 -117.725044 139 7164ft 194kts
27-Jun-18 11:39 33.186347 -117.681183 139 6692ft 198kts
27-Jun-18 11:40 33.145855 -117.636907 139 6196ft 198kts
27-Jun-18 11:41 33.105751 -117.593139 139 5685ft 195kts
27-Jun-18 11:42 33.066825 -117.549563 123 5183ft 194kts
27-Jun-18 11:43 33.062969 -117.485472 90 4688ft 194kts
27-Jun-18 11:44 33.062020 -117.421516 91 4195ft 193kts
27-Jun-18 11:45 33.057935 -117.358512 118 3664ft 189kts
27-Jun-18 11:46 33.040155 -117.303560 109 3324ft 170kts
27-Jun-18 11:47 33.024017 -117.252307 109 3084ft 162kts
27-Jun-18 11:48 33.008158 -117.202017 114 2853ft 161kts
27-Jun-18 11:49 32.992620 -117.152727 111 2663ft 159kts
27-Jun-18 11:50 32.988286 -117.101829 80 2450ft 159kts
27-Jun-18 11:51 32.996542 -117.050252 81 2237ft 158kts
27-Jun-18 11:52 32.997448 -117.002840 139 2216ft 132kts
27-Jun-18 11:53 32.968324 -116.976622 141 2138ft 128kts
27-Jun-18 11:54 32.940523 -116.951849 141 2158ft 123kts
27-Jun-18 11:55 32.913297 -116.927865 141 2158ft 121kts
27-Jun-18 11:56 32.889743 -116.907099 141 2156ft 121kts
27-Jun-18 11:57 32.862731 -116.883326 140 2141ft 123kts
27-Jun-18 11:58 32.835200 -116.859737 158 2125ft 124kts
27-Jun-18 11:59 32.804762 -116.860441 182 2628ft 106kts
27-Jun-18 12:00 32.772335 -116.861396 182 3287ft 126kts
27-Jun-18 12:01 32.744002 -116.888991 239 2972ft 168kts
27-Jun-18 12:02 32.709232 -116.921668 224 2935ft 154kts
27-Jun-18 12:03 32.687821 -116.963973 246 2886ft 150kts
27-Jun-18 12:04 32.703878 -116.998045 27 2689ft 149kts
27-Jun-18 12:05 32.682391 -116.981060 194 2424ft 151kts
27-Jun-18 12:06 32.681389 -117.012399 331 1633ft 135kts
27-Jun-18 12:07 32.708966 -117.043591 273 1118ft 139kts
27-Jun-18 12:08 32.713731 -117.085369 279 1170ft 128kts
27-Jun-18 12:09 32.721677 -117.128673 281 846ft 138kts
27-Jun-18 12:10 32.727937 -117.165253 283 444ft 90kts
27-Jun-18 12:11 32.732869 -117.186973 288 17ft 33kts
27-Jun-18 12:12 32.734516 -117.188132 350 17ft 0kts

Navigation Log

Ident Type
Flight plan parsing failed, navigation log unavailable